Shady, NY

8:19 AM EDT on May 23, 2015 (GMT -0400)
Shady | | Change Station
CLOSE
Current Station
Personal Weather Station
Location: Bearsville, NY
Elevation: 1299 ft
Nearby Weather Stations

Elev 1299 ft 42.07 °N, 74.17 °W | Updated 9 minutes ago

Clear
Clear
40.8 °F
Feels Like 41 °F
N
2.0
Wind Variable Wind from SSE
Gusts 3.0 mph

Today
High -- | Low -- °F
--% Chance of Precip.
Yesterday
High -- | Low -- °F
Precip. -- in
5:29 AM 8:18 PM
Waxing Crescent, 29% visible
Pressure 30.37 in
Visibility 10.0 miles
Clouds Clear
Windchill 41 °F
Dew Point 24 °F
Humidity 51%
Rainfall 0.00 in
Snow Depth Not available.
UV 2 out of 12
Pollen 9.10 out of 12
Air Quality Not available.
Flu Activity Widespread
METAR KPOU 231153Z 33009KT 10SM CLR 09/M05 A3038 RMK AO2 SLP284 T00891050 10106 20044 51026

More Conditions Fewer Conditions

Pressure 30.37 in
Visibility 10.0 miles
Clouds Clear
Windchill 41 °F
Dew Point 24 °F
Humidity 51%
Rainfall 0.00 in
Snow Depth Not available.
UV 2 out of 12
Pollen 9.10 out of 12
Air Quality Not available.
Flu Activity Widespread
METAR KPOU 231153Z 33009KT 10SM CLR 09/M05 A3038 RMK AO2 SLP284 T00891050 10106 20044 51026

More Conditions Fewer Conditions

10-Day Weather Forecast

Almanac

Astronomy

May. 23, 2015 Rise Set
Actual Time
Civil Twilight
Nautical Twilight
Astronomical Twilight
Moon
Length of Visible Light
Length of Day
Tomorrow will be .
, % of the Moon is Illuminated

Today's Extremes

State Highs State Lows

Community

WunderPhotos

Upload Photos

1,823,440 photos uploaded!

WunderBlogs® & News

Nearby

Air Quality

  Air Quality AQ Index Pollutant
Not available.

Snow Depth

Station Depth Elevation

Earthquake Activity

City Distance Mag. Time & Date
Minimum magnitude displayed is 2.5.

Coastal Water Temperatures

Place Temperature

Stations

Nearby Weather Stations

Station Location Temp. Windchill Dew Point Humidity Wind Precip. Elev Updated Type